createdAt,value
2022-11-04T00:01:44.176Z,6.78
2022-11-04T00:04:11.662Z,7.78
2022-11-04T00:06:38.897Z,8.25
2022-11-04T00:09:06.735Z,8.75
2022-11-04T00:11:52.037Z,8.40
2022-11-04T00:14:25.094Z,8.13
2022-11-04T00:17:10.459Z,8.93
2022-11-04T00:19:55.670Z,7.97
2022-11-04T00:22:40.781Z,8.70
2022-11-04T00:25:27.601Z,8.05
2022-11-04T00:28:20.186Z,8.57
2022-11-04T00:30:46.741Z,8.00
2022-11-04T00:33:28.409Z,7.47
2022-11-04T00:35:56.374Z,7.90
2022-11-04T00:38:23.903Z,7.72
2022-11-04T00:40:50.352Z,8.27
2022-11-04T00:43:17.160Z,7.38
2022-11-04T00:45:43.699Z,7.22
2022-11-04T00:48:10.671Z,8.05
2022-11-04T00:50:37.401Z,6.93
2022-11-04T00:53:04.343Z,7.50
2022-11-04T00:55:31.256Z,6.72
2022-11-04T00:57:57.919Z,6.95
2022-11-04T01:00:24.485Z,5.88
2022-11-04T01:02:51.169Z,6.35
2022-11-04T01:05:18.040Z,5.72
2022-11-04T01:07:44.792Z,5.38
2022-11-04T01:10:11.796Z,6.05
2022-11-04T01:12:38.347Z,5.97
2022-11-04T01:15:11.263Z,5.10
2022-11-04T01:17:37.884Z,4.90
2022-11-04T01:20:04.707Z,4.80
2022-11-04T01:22:31.523Z,5.30
2022-11-04T01:24:58.091Z,5.57
2022-11-04T01:27:27.484Z,4.47
2022-11-04T01:29:54.098Z,5.32
2022-11-04T01:32:21.052Z,4.97
2022-11-04T01:34:55.303Z,4.13
2022-11-04T01:37:22.628Z,4.85
2022-11-04T01:39:49.632Z,4.57
2022-11-04T01:42:19.037Z,4.20
2022-11-04T01:44:49.156Z,4.32
2022-11-04T01:47:19.870Z,3.92
2022-11-04T01:49:49.063Z,4.10
2022-11-04T01:52:20.046Z,3.92
2022-11-04T01:54:47.971Z,3.80
2022-11-04T01:57:18.584Z,4.53
2022-11-04T01:59:45.797Z,4.55
2022-11-04T02:02:12.464Z,4.65
2022-11-04T02:04:39.953Z,3.80
2022-11-04T02:07:08.006Z,4.13
2022-11-04T02:09:35.753Z,4.60
2022-11-04T02:12:21.197Z,4.13
2022-11-04T02:14:48.682Z,4.53
2022-11-04T02:17:15.231Z,3.67
2022-11-04T02:19:48.070Z,3.13
2022-11-04T02:22:14.748Z,3.92
2022-11-04T02:25:00.097Z,3.63
2022-11-04T02:27:37.990Z,3.22
2022-11-04T02:30:08.883Z,3.42
2022-11-04T02:32:54.272Z,3.38
2022-11-04T02:35:20.777Z,4.30
2022-11-04T02:38:02.463Z,3.53
2022-11-04T02:40:47.796Z,3.40
2022-11-04T02:43:33.151Z,3.92
2022-11-04T02:46:03.262Z,3.17
2022-11-04T02:48:32.992Z,3.08
2022-11-04T02:51:09.710Z,3.20
2022-11-04T02:53:42.129Z,2.90
2022-11-04T02:56:10.940Z,3.00
2022-11-04T02:58:40.616Z,2.92
2022-11-04T03:01:08.338Z,2.92
2022-11-04T03:03:37.450Z,2.85
2022-11-04T03:06:05.134Z,3.20
2022-11-04T03:08:45.679Z,3.28
2022-11-04T03:11:14.193Z,3.03
2022-11-04T03:13:44.423Z,3.65
2022-11-04T03:16:13.234Z,2.83
2022-11-04T03:19:01.737Z,2.58
2022-11-04T03:21:28.890Z,2.88
2022-11-04T03:23:55.963Z,3.25
2022-11-04T03:26:42.750Z,2.60
2022-11-04T03:29:20.538Z,3.10
2022-11-04T03:31:53.657Z,3.60
2022-11-04T03:34:20.284Z,2.40
2022-11-04T03:36:46.717Z,2.92
2022-11-04T03:39:13.116Z,2.55
2022-11-04T03:42:20.488Z,2.75
2022-11-04T03:44:48.829Z,2.75
2022-11-04T03:47:15.336Z,2.15
2022-11-04T03:49:41.923Z,2.50
2022-11-04T03:52:08.411Z,2.40
2022-11-04T03:54:36.303Z,3.53
2022-11-04T03:57:23.196Z,2.17
2022-11-04T03:59:58.767Z,2.72
2022-11-04T04:02:44.003Z,2.78
2022-11-04T04:05:25.913Z,2.63
2022-11-04T04:07:55.506Z,3.72
2022-11-04T04:10:41.927Z,3.20
2022-11-04T04:13:17.724Z,3.05
2022-11-04T04:16:03.018Z,3.05
2022-11-04T04:18:32.139Z,3.50
2022-11-04T04:21:00.484Z,2.78
2022-11-04T04:23:57.235Z,3.03
2022-11-04T04:26:42.628Z,3.72
2022-11-04T04:29:09.578Z,2.60
2022-11-04T04:31:49.453Z,3.60
2022-11-04T04:34:23.835Z,3.25
2022-11-04T04:36:56.729Z,3.10
2022-11-04T04:39:47.438Z,2.92
2022-11-04T04:42:32.301Z,3.35
2022-11-04T04:45:03.251Z,2.70
2022-11-04T04:47:35.858Z,2.83
2022-11-04T04:50:02.622Z,3.67
2022-11-04T04:52:31.114Z,3.20
2022-11-04T04:54:57.704Z,3.10
2022-11-04T04:57:24.212Z,2.97
2022-11-04T04:59:50.744Z,3.20
2022-11-04T05:02:17.494Z,2.97
2022-11-04T05:04:44.198Z,3.20
2022-11-04T05:07:10.776Z,2.97
2022-11-04T05:09:37.478Z,3.15
2022-11-04T05:12:04.160Z,4.15
2022-11-04T05:14:30.668Z,3.08
2022-11-04T05:16:57.097Z,2.70
2022-11-04T05:19:23.722Z,3.53
2022-11-04T05:21:50.435Z,2.85
2022-11-04T05:24:17.059Z,2.95
2022-11-04T05:26:43.602Z,3.33
2022-11-04T05:29:10.689Z,3.35
2022-11-04T05:31:37.227Z,4.13
2022-11-04T05:34:05.504Z,2.80
2022-11-04T05:36:33.310Z,2.95
2022-11-04T05:38:59.939Z,3.17
2022-11-04T05:41:26.891Z,5.22
2022-11-04T05:44:00.500Z,3.40
2022-11-04T05:46:27.582Z,3.03
2022-11-04T05:48:54.144Z,2.80
2022-11-04T05:51:22.271Z,3.45
2022-11-04T05:53:48.722Z,2.90
2022-11-04T05:56:15.145Z,3.30
2022-11-04T05:58:41.603Z,3.80
2022-11-04T06:01:24.503Z,2.53
2022-11-04T06:03:51.872Z,2.67
2022-11-04T06:06:18.318Z,2.40
2022-11-04T06:08:45.409Z,2.55
2022-11-04T06:11:12.053Z,2.95
2022-11-04T06:13:38.486Z,3.20
2022-11-04T06:16:04.928Z,3.05
2022-11-04T06:18:31.352Z,3.42
2022-11-04T06:21:09.088Z,2.75
2022-11-04T06:23:35.768Z,3.55
2022-11-04T06:26:02.417Z,3.88
2022-11-04T06:28:28.785Z,2.90
2022-11-04T06:30:56.842Z,3.58
2022-11-04T06:33:23.768Z,3.00
2022-11-04T06:35:50.225Z,3.30
2022-11-04T06:38:16.739Z,3.47
2022-11-04T06:40:43.205Z,3.72
2022-11-04T06:43:12.156Z,4.55
2022-11-04T06:45:38.625Z,4.78
2022-11-04T06:48:05.164Z,3.67
2022-11-04T06:50:31.712Z,5.95
2022-11-04T06:52:58.102Z,4.50
2022-11-04T06:55:25.110Z,3.38
2022-11-04T06:57:57.673Z,3.30
2022-11-04T07:00:24.410Z,3.67
2022-11-04T07:02:50.988Z,3.70
2022-11-04T07:05:24.344Z,4.28
2022-11-04T07:07:50.797Z,4.32
2022-11-04T07:10:17.334Z,4.22
2022-11-04T07:12:43.943Z,3.80
2022-11-04T07:15:11.238Z,5.82
2022-11-04T07:17:37.773Z,5.18
2022-11-04T07:20:05.673Z,4.32
2022-11-04T07:22:32.127Z,3.83
2022-11-04T07:24:58.525Z,6.03
2022-11-04T07:27:24.911Z,6.07
2022-11-04T07:29:51.272Z,5.20
2022-11-04T07:32:17.652Z,4.93
2022-11-04T07:34:44.099Z,4.85
2022-11-04T07:37:10.512Z,4.22
2022-11-04T07:39:37.465Z,4.70
2022-11-04T07:42:03.849Z,4.15
2022-11-04T07:44:30.249Z,4.63
2022-11-04T07:46:57.136Z,6.47
2022-11-04T07:49:25.342Z,5.57
2022-11-04T07:51:51.866Z,5.85
2022-11-04T07:54:18.214Z,5.72
2022-11-04T07:56:44.592Z,4.90
2022-11-04T07:59:11.312Z,5.00
2022-11-04T08:01:37.774Z,7.18
2022-11-04T08:04:05.212Z,4.80
2022-11-04T08:06:31.986Z,5.90
2022-11-04T08:08:58.664Z,5.03
2022-11-04T08:11:28.237Z,6.00
2022-11-04T08:13:55.634Z,6.15
2022-11-04T08:16:22.881Z,6.03
2022-11-04T08:18:49.963Z,5.45
2022-11-04T08:21:16.633Z,7.28
2022-11-04T08:23:43.094Z,5.03
2022-11-04T08:26:11.244Z,4.93
2022-11-04T08:28:37.701Z,6.30
2022-11-04T08:31:09.352Z,5.68
2022-11-04T08:33:36.558Z,5.25
2022-11-04T08:36:05.695Z,4.95
2022-11-04T08:38:32.131Z,6.43
2022-11-04T08:41:00.299Z,4.60
2022-11-04T08:43:27.060Z,4.60
2022-11-04T08:45:53.467Z,4.57
2022-11-04T08:48:20.152Z,5.20
2022-11-04T08:50:50.793Z,5.10
2022-11-04T08:53:17.209Z,4.57
2022-11-04T08:55:43.653Z,4.47
2022-11-04T08:58:10.494Z,3.78
2022-11-04T09:00:37.218Z,5.10
2022-11-04T09:03:04.330Z,4.45
2022-11-04T09:05:30.934Z,4.38
2022-11-04T09:07:57.377Z,6.65
2022-11-04T09:10:23.761Z,42.95
2022-11-04T09:12:50.166Z,20.45
2022-11-04T09:15:16.524Z,6.30
2022-11-04T09:17:44.348Z,5.50
2022-11-04T09:20:12.156Z,10.85
2022-11-04T09:22:43.031Z,13.05
2022-11-04T09:25:11.904Z,5.78
2022-11-04T09:27:38.266Z,4.78
2022-11-04T09:30:04.852Z,4.35
2022-11-04T09:32:34.201Z,3.78
2022-11-04T09:35:00.625Z,4.63
2022-11-04T09:37:26.978Z,5.18
2022-11-04T09:39:54.064Z,4.45
2022-11-04T09:42:39.769Z,4.50
2022-11-04T09:45:21.559Z,4.22
2022-11-04T09:47:51.174Z,4.70
2022-11-04T09:50:28.722Z,3.83
2022-11-04T09:53:03.995Z,4.90
2022-11-04T09:55:46.554Z,4.65
2022-11-04T09:58:14.684Z,4.90
2022-11-04T10:00:42.917Z,5.20
2022-11-04T10:03:12.715Z,5.20
2022-11-04T10:05:58.232Z,5.32
2022-11-04T10:08:24.662Z,10.88
2022-11-04T10:11:09.948Z,10.18
2022-11-04T10:13:39.410Z,10.73
2022-11-04T10:16:18.222Z,12.05
2022-11-04T10:18:53.845Z,11.38
2022-11-04T10:21:39.144Z,12.18
2022-11-04T10:24:08.463Z,12.55
2022-11-04T10:27:00.486Z,12.68
2022-11-04T10:29:31.252Z,13.98
2022-11-04T10:31:59.851Z,14.85
2022-11-04T10:34:38.735Z,13.55
2022-11-04T10:37:08.719Z,14.38
2022-11-04T10:39:37.496Z,15.15
2022-11-04T10:42:04.713Z,14.13
2022-11-04T10:44:35.475Z,14.10
2022-11-04T10:47:04.717Z,15.63
2022-11-04T10:49:31.097Z,15.35
2022-11-04T10:51:57.792Z,15.77
2022-11-04T10:54:26.265Z,16.55
2022-11-04T10:56:56.154Z,14.88
2022-11-04T10:59:42.617Z,15.73
2022-11-04T11:02:10.155Z,15.88
2022-11-04T11:04:37.551Z,16.65
2022-11-04T11:07:08.553Z,17.02
2022-11-04T11:09:37.982Z,17.27
2022-11-04T11:12:48.783Z,18.50
2022-11-04T11:15:17.401Z,18.35
2022-11-04T11:17:49.752Z,19.50
2022-11-04T11:20:20.536Z,18.98
2022-11-04T11:22:47.886Z,17.80
2022-11-04T11:25:20.836Z,17.83
2022-11-04T11:27:53.736Z,17.33
2022-11-04T11:30:23.482Z,16.02
2022-11-04T11:33:00.993Z,16.30
2022-11-04T11:35:43.958Z,14.60
2022-11-04T11:38:29.179Z,13.73
2022-11-04T11:41:30.489Z,13.48
2022-11-04T11:43:59.344Z,13.20
2022-11-04T11:46:28.142Z,13.63
2022-11-04T11:49:01.019Z,13.63
2022-11-04T11:51:32.275Z,14.70
2022-11-04T11:54:18.321Z,13.40
2022-11-04T11:57:11.837Z,13.27
2022-11-04T12:02:31.686Z,11.77
2022-11-04T12:11:00.298Z,8.68
2022-11-04T12:13:34.953Z,8.27
2022-11-04T12:16:11.041Z,8.50
2022-11-04T12:18:40.665Z,7.28
2022-11-04T12:21:15.982Z,6.38
2022-11-04T12:23:42.942Z,5.45
2022-11-04T12:26:19.044Z,6.30
2022-11-04T12:28:52.292Z,6.82
2022-11-04T12:31:31.476Z,6.80
2022-11-04T12:34:04.015Z,7.15
2022-11-04T12:36:44.285Z,7.28
2022-11-04T12:39:16.748Z,6.35
2022-11-04T12:42:19.134Z,6.50
2022-11-04T12:44:56.082Z,5.55
2022-11-04T12:47:33.111Z,4.45
2022-11-04T12:50:08.806Z,5.85
2022-11-04T12:52:48.020Z,6.97
2022-11-04T12:55:25.054Z,7.03
2022-11-04T12:58:02.379Z,7.68
2022-11-04T13:00:34.291Z,7.38
2022-11-04T13:03:05.018Z,8.20
2022-11-04T13:05:31.656Z,8.40
2022-11-04T13:08:18.671Z,8.13
2022-11-04T13:10:51.205Z,7.57
2022-11-04T13:13:21.286Z,9.50
2022-11-04T13:15:54.858Z,7.32
2022-11-04T13:18:24.021Z,7.53
2022-11-04T13:21:04.157Z,7.60
2022-11-04T13:24:00.166Z,6.63
2022-11-04T13:26:26.811Z,7.60
2022-11-04T13:29:04.318Z,6.95
2022-11-04T13:31:39.618Z,7.78
2022-11-04T13:34:17.981Z,6.95
2022-11-04T13:36:56.293Z,6.65
2022-11-04T13:39:29.683Z,6.30
2022-11-04T13:42:20.737Z,5.82
2022-11-04T13:44:48.304Z,6.38
2022-11-04T13:47:22.228Z,5.82
2022-11-04T13:49:50.478Z,6.50
2022-11-04T13:52:17.489Z,5.20
2022-11-04T13:54:58.764Z,5.90
2022-11-04T13:57:29.870Z,5.60
2022-11-04T14:00:20.660Z,5.70
2022-11-04T14:02:54.763Z,5.80
2022-11-04T14:05:27.980Z,5.93
2022-11-04T14:08:03.888Z,6.00
2022-11-04T14:10:42.906Z,5.03
2022-11-04T14:13:37.188Z,3.58
2022-11-04T14:16:10.186Z,3.40
2022-11-04T14:18:41.323Z,3.72
2022-11-04T14:21:15.342Z,3.33
2022-11-04T14:23:43.427Z,3.60
2022-11-04T14:26:11.552Z,3.60
2022-11-04T14:28:39.050Z,3.88
2022-11-04T14:31:16.888Z,4.50
2022-11-04T14:33:53.950Z,4.07
2022-11-04T14:36:28.318Z,4.00
2022-11-04T14:38:55.044Z,3.72
2022-11-04T14:41:33.174Z,3.90
2022-11-04T14:44:03.291Z,3.72
2022-11-04T14:46:32.139Z,3.03
2022-11-04T14:49:01.291Z,3.65
2022-11-04T14:51:32.902Z,3.47
2022-11-04T14:54:08.708Z,3.30
2022-11-04T14:56:35.611Z,3.65
2022-11-04T14:59:03.730Z,3.70
2022-11-04T15:01:35.057Z,3.83
2022-11-04T15:04:25.085Z,2.83
2022-11-04T15:06:55.940Z,1.90
2022-11-04T15:09:28.070Z,2.20
2022-11-04T15:12:19.531Z,1.42
2022-11-04T15:14:46.173Z,1.60
2022-11-04T15:17:17.799Z,1.40
2022-11-04T15:19:48.212Z,1.08
2022-11-04T15:22:15.281Z,1.17
2022-11-04T15:24:43.087Z,1.33
2022-11-04T15:27:14.596Z,1.13
2022-11-04T15:29:41.516Z,1.05
2022-11-04T15:32:17.139Z,1.17
2022-11-04T15:34:45.362Z,1.10
2022-11-04T15:37:12.453Z,1.50
2022-11-04T15:39:46.366Z,1.33
2022-11-04T15:42:43.988Z,1.15
2022-11-04T15:45:23.021Z,1.63
2022-11-04T15:47:49.911Z,1.80
2022-11-04T15:50:24.077Z,1.40
2022-11-04T15:52:55.691Z,1.73
2022-11-04T15:55:37.929Z,1.40
2022-11-04T15:58:04.594Z,1.27
2022-11-04T16:00:31.270Z,1.70
2022-11-04T16:02:59.214Z,1.40
2022-11-04T16:05:25.762Z,1.45
2022-11-04T16:07:58.315Z,1.40
2022-11-04T16:10:32.664Z,1.43
2022-11-04T16:13:03.008Z,1.40
2022-11-04T16:15:30.572Z,1.33
2022-11-04T16:17:57.199Z,1.90
2022-11-04T16:20:24.757Z,1.60
2022-11-04T16:22:58.866Z,1.50
2022-11-04T16:25:29.425Z,2.08
2022-11-04T16:27:55.964Z,1.60
2022-11-04T16:30:24.367Z,1.40
2022-11-04T16:32:55.258Z,1.60
2022-11-04T16:35:24.164Z,1.65
2022-11-04T16:37:54.320Z,1.98
2022-11-04T16:40:21.879Z,1.65
2022-11-04T16:42:53.391Z,2.75
2022-11-04T16:45:27.469Z,2.20
2022-11-04T16:47:57.580Z,2.40
2022-11-04T16:50:29.445Z,2.33
2022-11-04T16:52:56.664Z,2.33
2022-11-04T16:55:24.700Z,2.00
2022-11-04T16:57:54.181Z,2.40
2022-11-04T17:00:23.086Z,2.60
2022-11-04T17:02:50.415Z,3.75
2022-11-04T17:05:18.338Z,2.53
2022-11-04T17:07:55.477Z,2.80
2022-11-04T17:10:27.196Z,3.10
2022-11-04T17:12:53.993Z,3.00
2022-11-04T17:15:21.025Z,2.90
2022-11-04T17:17:53.581Z,2.70
2022-11-04T17:20:21.345Z,2.78
2022-11-04T17:22:51.141Z,3.15
2022-11-04T17:25:22.057Z,2.80
2022-11-04T17:27:49.009Z,3.38
2022-11-04T17:30:17.234Z,3.05
2022-11-04T17:32:44.288Z,2.92
2022-11-04T17:35:11.683Z,3.10
2022-11-04T17:37:38.684Z,3.03
2022-11-04T17:40:06.437Z,2.90
2022-11-04T17:42:53.422Z,2.80
2022-11-04T17:45:20.077Z,3.90
2022-11-04T17:47:46.715Z,3.95
2022-11-04T17:50:13.998Z,4.22
2022-11-04T17:52:42.375Z,4.30
2022-11-04T17:55:15.418Z,4.05
2022-11-04T17:57:43.555Z,3.17
2022-11-04T18:00:10.696Z,3.53
2022-11-04T18:02:37.601Z,3.63
2022-11-04T18:05:04.681Z,4.50
2022-11-04T18:07:31.637Z,4.40
2022-11-04T18:09:58.399Z,3.75
2022-11-04T18:12:38.242Z,3.97
2022-11-04T18:15:11.049Z,3.28
2022-11-04T18:17:41.695Z,3.83
2022-11-04T18:20:13.689Z,3.25
2022-11-04T18:22:43.714Z,4.65
2022-11-04T18:25:11.205Z,3.80
2022-11-04T18:27:38.098Z,3.35
2022-11-04T18:30:05.370Z,3.17
2022-11-04T18:32:32.218Z,3.65
2022-11-04T18:34:59.155Z,3.22
2022-11-04T18:37:26.328Z,3.13
2022-11-04T18:39:53.131Z,3.50
2022-11-04T18:42:20.158Z,2.53
2022-11-04T18:44:49.887Z,3.47
2022-11-04T18:47:16.677Z,4.20
2022-11-04T18:49:43.422Z,4.88
2022-11-04T18:52:10.120Z,3.83
2022-11-04T18:54:36.993Z,4.82
2022-11-04T18:57:16.512Z,4.28
2022-11-04T19:00:02.043Z,5.25
2022-11-04T19:02:42.909Z,5.10
2022-11-04T19:05:12.042Z,5.50
2022-11-04T19:07:45.234Z,6.15
2022-11-04T19:10:20.678Z,6.13
2022-11-04T19:13:12.317Z,6.95
2022-11-04T19:19:00.331Z,5.28
2022-11-04T19:24:18.175Z,5.90
2022-11-04T19:27:01.190Z,6.60
2022-11-04T19:29:41.599Z,7.20
2022-11-04T19:32:14.741Z,6.68
2022-11-04T19:34:44.861Z,8.27
2022-11-04T19:43:20.106Z,7.80
2022-11-04T19:46:03.994Z,6.57
2022-11-04T19:48:37.333Z,5.95
2022-11-04T19:53:51.622Z,6.60
2022-11-04T19:56:19.168Z,6.93
2022-11-04T19:58:50.737Z,7.20
2022-11-04T20:01:21.820Z,7.38
2022-11-04T20:03:49.075Z,6.93
2022-11-04T20:06:21.376Z,6.38
2022-11-04T20:08:52.267Z,5.57
2022-11-04T20:11:28.799Z,6.32
2022-11-04T20:14:00.065Z,6.88
2022-11-04T20:25:24.804Z,6.55
2022-11-04T20:27:53.721Z,5.57
2022-11-04T20:33:16.889Z,5.70
2022-11-04T20:35:43.931Z,5.60
2022-11-04T20:38:20.861Z,6.90
2022-11-04T20:40:48.873Z,5.93
2022-11-04T20:43:48.475Z,6.68
2022-11-04T20:49:30.966Z,10.10
2022-11-04T20:52:10.407Z,8.43
2022-11-04T20:54:59.892Z,8.90
2022-11-04T20:57:34.701Z,9.63
2022-11-04T21:00:01.752Z,7.97
2022-11-04T21:02:37.720Z,8.07
2022-11-04T21:05:14.174Z,8.20
2022-11-04T21:07:41.945Z,7.25
2022-11-04T21:10:10.634Z,6.60
2022-11-04T21:12:41.063Z,5.47
2022-11-04T21:15:34.472Z,4.45
2022-11-04T21:18:01.641Z,4.30
2022-11-04T21:20:42.235Z,3.40
2022-11-04T21:23:10.053Z,3.80
2022-11-04T21:25:44.678Z,3.65
2022-11-04T21:28:30.991Z,3.70
2022-11-04T21:31:02.367Z,3.58
2022-11-04T21:33:28.773Z,3.72
2022-11-04T21:35:55.517Z,3.55
2022-11-04T21:38:24.821Z,3.42
2022-11-04T21:40:51.878Z,3.38
2022-11-04T21:43:18.955Z,3.60
2022-11-04T21:45:45.874Z,3.00
2022-11-04T21:48:12.893Z,2.90
2022-11-04T21:50:39.985Z,3.45
2022-11-04T21:53:06.761Z,2.88
2022-11-04T21:55:36.104Z,2.97
2022-11-04T21:58:02.871Z,2.38
2022-11-04T22:00:29.449Z,2.63
2022-11-04T22:02:56.415Z,3.97
2022-11-04T22:05:36.715Z,2.90
2022-11-04T22:08:19.719Z,2.92
2022-11-04T22:10:48.279Z,3.13
2022-11-04T22:13:15.127Z,2.55
2022-11-04T22:16:00.982Z,3.00
2022-11-04T22:18:31.864Z,2.80
2022-11-04T22:21:01.296Z,2.75
2022-11-04T22:23:28.198Z,2.90
2022-11-04T22:26:04.944Z,3.65
2022-11-04T22:28:31.731Z,3.30
2022-11-04T22:31:04.639Z,2.97
2022-11-04T22:33:32.041Z,3.15
2022-11-04T22:35:58.592Z,3.20
2022-11-04T22:38:25.471Z,3.13
2022-11-04T22:40:57.256Z,3.17
2022-11-04T22:43:25.080Z,3.20
2022-11-04T22:45:52.310Z,3.13
2022-11-04T22:48:19.143Z,3.53
2022-11-04T22:50:46.007Z,4.00
2022-11-04T22:53:14.068Z,3.92
2022-11-04T22:55:41.094Z,4.28
2022-11-04T22:58:07.532Z,4.85
2022-11-04T23:00:34.309Z,4.03
2022-11-04T23:03:00.968Z,4.18
2022-11-04T23:05:28.352Z,4.35
2022-11-04T23:07:55.836Z,4.57
2022-11-04T23:10:44.309Z,5.15
2022-11-04T23:13:29.547Z,5.05
2022-11-04T23:16:14.895Z,5.38
2022-11-04T23:18:44.786Z,4.85
2022-11-04T23:21:54.269Z,5.40
2022-11-04T23:24:39.301Z,5.00
2022-11-04T23:27:06.675Z,5.55
2022-11-04T23:29:52.059Z,6.55
2022-11-04T23:32:21.966Z,5.40
2022-11-04T23:35:11.409Z,4.50
2022-11-04T23:37:38.086Z,5.03
2022-11-04T23:40:04.944Z,4.95
2022-11-04T23:42:31.551Z,5.28
2022-11-04T23:45:17.030Z,4.35
2022-11-04T23:48:02.965Z,3.78
2022-11-04T23:50:49.586Z,3.72
2022-11-04T23:53:35.647Z,4.13
2022-11-04T23:56:20.886Z,4.00
2022-11-04T23:59:06.242Z,4.45
